Aérodrome :
LOGIN :

S'inscrire | Disclaimer

   EN    FR    IT 

 










Légende :    VFR   VFR Marginal   IFR   IFR Intensif   IFR Très Intensif
Visi : 
Plafond : 
>= 8 km
>= 3000ft
5 à 8 km
1000 à 3000 ft
1500m à 5 km
500 à 1000 ft
800 à 1500m
200 à 500 ft
< 800m
< 200 ft
Symboles :   Orages  Brouillard  Fortes neiges  Fortes précipitations  Vent > 20 kt
SIGMETs :   Divers  Orages  Givrage  Turbulence  Onde Orograph.  Cendres Volcan.






- Altitude de l'aérodrome : 32 ft
- Code IATA : LKZ


EGUL - RAF Lakenheath

DERNIER METAR :
  • 150756Z AUTO 22016KT 9999 CLR 05/01 A2926 RMK AO2 PK WND 23028/25 SLP912 T00450008 $

METARs EXPIRÉS :
  • 150656Z AUTO 23017G29KT 9999 CLR 04/01 A2922 RMK AO2 PK WND 23029/49 SLP899 T00440009 $
  • 150556Z AUTO 23018KT 9999 CLR 05/01 A2919 RMK AO2 PK WND 23029/20 SLP888 60003 T00450005 10078 20045 52035 $

Prévision TAF périmée.



MET'MAP, la Météo Aéronautique d'un coup d'oeil ! - Copyright ORBIFLY Décembre 2007 - Disclaimer

ORBIFLY MET'MAP TEAM :

Programmation & Développement : Alexandra Zaïnal
Sur une idée originale de : Baudouin d'Aumeries
Assistance à la programmation : Marc-Olivier Méhu
Soutien technique & logistique : Manuel Goepfert

Contact : metmap@orbifly.com




SOURCES & CREDITS :

   NOAA